createdAt,value
2023-02-27T00:00:23.799Z,101592.19
2023-02-27T00:02:52.719Z,101585.28
2023-02-27T00:05:22.675Z,101589.00
2023-02-27T00:07:50.485Z,101559.81
2023-02-27T00:10:17.979Z,101561.88
2023-02-27T00:12:45.520Z,101574.41
2023-02-27T00:15:16.158Z,101531.66
2023-02-27T00:17:43.913Z,101573.34
2023-02-27T00:20:14.348Z,101541.19
2023-02-27T00:22:42.662Z,101563.53
2023-02-27T00:25:11.061Z,101576.25
2023-02-27T00:27:39.113Z,101554.22
2023-02-27T00:30:12.514Z,101566.44
2023-02-27T00:32:42.326Z,101571.38
2023-02-27T00:35:12.343Z,101572.22
2023-02-27T00:37:40.328Z,101544.59
2023-02-27T00:40:08.642Z,101569.66
2023-02-27T00:42:35.969Z,101541.66
2023-02-27T00:45:04.697Z,101572.56
2023-02-27T00:47:32.766Z,101573.56
2023-02-27T00:49:59.999Z,101563.09
2023-02-27T00:52:27.878Z,101527.94
2023-02-27T00:54:55.082Z,101542.78
2023-02-27T00:57:23.216Z,101521.44
2023-02-27T00:59:50.579Z,101560.41
2023-02-27T01:02:18.317Z,101552.69
2023-02-27T01:04:45.607Z,101553.59
2023-02-27T01:07:12.925Z,101548.16
2023-02-27T01:09:40.065Z,101544.59
2023-02-27T01:12:08.079Z,101515.13
2023-02-27T01:14:35.574Z,101522.00
2023-02-27T01:17:03.455Z,101519.31
2023-02-27T01:19:32.063Z,101566.06
2023-02-27T01:21:59.522Z,101543.91
2023-02-27T01:24:26.959Z,101536.34
2023-02-27T01:26:54.185Z,101565.63
2023-02-27T01:29:21.448Z,101542.97
2023-02-27T01:31:50.094Z,101543.66
2023-02-27T01:34:17.964Z,101553.47
2023-02-27T01:36:45.233Z,101547.28
2023-02-27T01:39:16.257Z,101546.81
2023-02-27T01:41:47.143Z,101547.69
2023-02-27T01:44:15.647Z,101539.28
2023-02-27T01:46:43.092Z,101534.63
2023-02-27T01:49:15.149Z,101539.53
2023-02-27T01:52:06.503Z,101541.91
2023-02-27T01:54:38.599Z,101541.13
2023-02-27T01:57:07.125Z,101549.06
2023-02-27T01:59:41.980Z,101513.44
2023-02-27T02:02:18.016Z,101509.00
2023-02-27T02:04:46.613Z,101535.88
2023-02-27T02:07:17.890Z,101521.34
2023-02-27T02:09:50.959Z,101506.91
2023-02-27T02:12:23.663Z,101529.06
2023-02-27T02:14:52.578Z,101515.69
2023-02-27T02:17:40.495Z,101458.81
2023-02-27T02:20:26.393Z,101522.03
2023-02-27T02:23:13.966Z,101517.28
2023-02-27T02:26:20.067Z,101499.03
2023-02-27T02:29:15.835Z,101480.06
2023-02-27T02:32:05.923Z,101502.06
2023-02-27T02:34:45.283Z,101509.06
2023-02-27T02:37:59.728Z,101501.06
2023-02-27T02:40:44.352Z,101478.59
2023-02-27T02:43:26.749Z,101493.53
2023-02-27T02:46:10.706Z,101477.16
2023-02-27T02:48:47.204Z,101478.72
2023-02-27T02:51:28.507Z,101466.19
2023-02-27T02:54:17.593Z,101462.50
2023-02-27T02:57:07.423Z,101472.16
2023-02-27T02:59:42.390Z,101463.06
2023-02-27T03:02:17.520Z,101458.81
2023-02-27T03:05:00.660Z,101465.56
2023-02-27T03:07:44.658Z,101457.91
2023-02-27T03:10:14.385Z,101462.81
2023-02-27T03:12:49.538Z,101454.78
2023-02-27T03:15:29.916Z,101464.91
2023-02-27T03:18:05.988Z,101452.97
2023-02-27T03:20:39.798Z,101454.75
2023-02-27T03:23:14.288Z,101449.75
2023-02-27T03:25:46.522Z,101426.66
2023-02-27T03:28:21.301Z,101420.13
2023-02-27T03:31:34.627Z,101470.44
2023-02-27T03:34:27.905Z,101457.63
2023-02-27T03:37:06.618Z,101448.06
2023-02-27T03:40:01.719Z,101451.44
2023-02-27T03:42:40.701Z,101468.91
2023-02-27T03:46:01.665Z,101456.78
2023-02-27T03:48:29.788Z,101441.47
2023-02-27T03:50:57.527Z,101459.59
2023-02-27T03:53:27.757Z,101458.69
2023-02-27T03:55:56.697Z,101420.00
2023-02-27T03:58:24.784Z,101447.13
2023-02-27T04:00:52.131Z,101455.28
2023-02-27T04:03:21.475Z,101417.78
2023-02-27T04:05:52.140Z,101435.50
2023-02-27T04:08:50.807Z,101415.66
2023-02-27T04:11:45.665Z,101456.72
2023-02-27T04:14:29.826Z,101456.44
2023-02-27T04:17:21.265Z,101403.97
2023-02-27T04:20:19.342Z,101418.44
2023-02-27T04:23:06.075Z,101446.72
2023-02-27T04:26:02.604Z,101447.66
2023-02-27T04:28:45.009Z,101459.31
2023-02-27T04:31:24.928Z,101450.28
2023-02-27T04:34:07.108Z,101464.38
2023-02-27T04:36:49.700Z,101439.38
2023-02-27T04:39:51.869Z,101448.75
2023-02-27T04:42:26.205Z,101390.06
2023-02-27T04:44:57.645Z,101443.72
2023-02-27T04:47:28.294Z,101442.50
2023-02-27T04:50:18.068Z,101423.22
2023-02-27T04:52:52.758Z,101456.34
2023-02-27T04:55:39.694Z,101452.22
2023-02-27T04:58:14.708Z,101465.44
2023-02-27T05:00:46.782Z,101440.94
2023-02-27T05:03:23.329Z,101453.88
2023-02-27T05:05:55.723Z,101457.50
2023-02-27T05:08:47.718Z,101442.25
2023-02-27T05:11:29.089Z,101444.63
2023-02-27T05:14:04.510Z,101448.50
2023-02-27T05:16:35.713Z,101459.44
2023-02-27T05:19:05.684Z,101445.44
2023-02-27T05:21:39.280Z,101410.22
2023-02-27T05:24:14.491Z,101451.19
2023-02-27T05:27:02.960Z,101449.47
2023-02-27T05:29:42.582Z,101445.44
2023-02-27T05:32:42.261Z,101451.50
2023-02-27T05:35:29.118Z,101436.84
2023-02-27T05:38:26.059Z,101451.09
2023-02-27T05:41:09.294Z,101434.69
2023-02-27T05:43:49.576Z,101435.69
2023-02-27T05:46:29.230Z,101448.75
2023-02-27T05:49:21.931Z,101434.69
2023-02-27T05:51:53.510Z,101442.50
2023-02-27T05:54:41.115Z,101445.06
2023-02-27T05:57:21.842Z,101461.53
2023-02-27T05:59:59.731Z,101456.38
2023-02-27T06:02:27.411Z,101448.91
2023-02-27T06:04:56.385Z,101438.63
2023-02-27T06:07:25.107Z,101457.59
2023-02-27T06:09:52.354Z,101447.56
2023-02-27T06:12:22.728Z,101456.97
2023-02-27T06:14:49.983Z,101452.31
2023-02-27T06:17:17.734Z,101434.91
2023-02-27T06:19:45.692Z,101453.31
2023-02-27T06:22:17.503Z,101446.50
2023-02-27T06:24:46.473Z,101461.59
2023-02-27T06:27:13.591Z,101433.91
2023-02-27T06:29:40.795Z,101449.41
2023-02-27T06:32:08.064Z,101462.72
2023-02-27T06:34:35.283Z,101463.91
2023-02-27T06:37:04.274Z,101474.97
2023-02-27T06:39:31.574Z,101459.56
2023-02-27T06:41:58.831Z,101472.84
2023-02-27T06:44:26.117Z,101474.88
2023-02-27T06:46:53.501Z,101464.69
2023-02-27T06:49:20.894Z,101488.94
2023-02-27T06:51:48.212Z,101478.66
2023-02-27T06:54:19.670Z,101478.78
2023-02-27T06:57:01.318Z,101496.97
2023-02-27T06:59:29.090Z,101480.03
2023-02-27T07:01:56.641Z,101488.03
2023-02-27T07:04:23.771Z,101464.75
2023-02-27T07:07:32.613Z,101496.09
2023-02-27T07:09:38.936Z,101487.16
2023-02-27T07:12:09.032Z,101466.59
2023-02-27T07:14:36.391Z,101482.13
2023-02-27T07:17:04.858Z,101470.66
2023-02-27T07:19:34.237Z,101474.97
2023-02-27T07:22:01.438Z,101496.09
2023-02-27T07:24:28.718Z,101495.84
2023-02-27T07:26:56.003Z,101509.34
2023-02-27T07:29:23.377Z,101494.72
2023-02-27T07:31:50.708Z,101483.13
2023-02-27T07:34:17.931Z,101479.91
2023-02-27T07:36:45.129Z,101496.63
2023-02-27T07:39:13.882Z,101495.75
2023-02-27T07:41:42.262Z,101503.78
2023-02-27T07:44:17.321Z,101497.09
2023-02-27T07:46:45.080Z,101513.59
2023-02-27T07:49:12.447Z,101502.13
2023-02-27T07:51:39.820Z,101490.84
2023-02-27T07:54:08.548Z,101527.09
2023-02-27T07:56:35.908Z,101516.94
2023-02-27T07:59:03.283Z,101529.34
2023-02-27T08:01:30.678Z,101528.09
2023-02-27T08:03:57.949Z,101502.44
2023-02-27T08:06:34.566Z,101531.34
2023-02-27T08:09:02.389Z,101523.09
2023-02-27T08:11:29.819Z,101528.81
2023-02-27T08:14:01.612Z,101528.44
2023-02-27T08:16:31.603Z,101525.53
2023-02-27T08:19:00.230Z,101511.03
2023-02-27T08:21:28.498Z,101532.03
2023-02-27T08:23:56.278Z,101532.22
2023-02-27T08:26:23.852Z,101536.47
2023-02-27T08:28:52.026Z,101548.34
2023-02-27T08:31:19.276Z,101544.63
2023-02-27T08:33:46.550Z,101541.84
2023-02-27T08:36:15.558Z,101542.50
2023-02-27T08:38:43.646Z,101544.88
2023-02-27T08:41:10.856Z,101539.72
2023-02-27T08:43:38.111Z,101525.28
2023-02-27T08:46:05.565Z,101521.59
2023-02-27T08:48:32.925Z,101539.44
2023-02-27T08:51:00.206Z,101543.81
2023-02-27T08:53:28.474Z,101539.59
2023-02-27T08:55:55.825Z,101552.06
2023-02-27T08:58:25.890Z,101543.69
2023-02-27T09:00:53.214Z,101536.84
2023-02-27T09:03:21.743Z,101533.72
2023-02-27T09:05:50.048Z,101524.69
2023-02-27T09:08:17.236Z,101518.88
2023-02-27T09:10:44.608Z,101543.78
2023-02-27T09:13:11.947Z,101549.47
2023-02-27T09:15:39.620Z,101536.34
2023-02-27T09:18:07.996Z,101552.50
2023-02-27T09:20:40.597Z,101535.63
2023-02-27T09:23:08.455Z,101559.28
2023-02-27T09:25:35.694Z,101547.16
2023-02-27T09:28:03.288Z,101553.59
2023-02-27T09:30:30.560Z,101558.13
2023-02-27T09:32:57.979Z,101545.72
2023-02-27T09:35:25.728Z,101547.00
2023-02-27T09:37:53.217Z,101543.19
2023-02-27T09:40:28.314Z,101552.91
2023-02-27T09:43:01.444Z,101532.66
2023-02-27T09:45:31.685Z,101555.44
2023-02-27T09:48:27.461Z,101565.03
2023-02-27T09:50:54.961Z,101541.63
2023-02-27T09:53:33.738Z,101582.84
2023-02-27T09:56:36.025Z,101569.44
2023-02-27T09:59:36.411Z,101551.53
2023-02-27T10:02:32.855Z,101579.09
2023-02-27T10:05:20.835Z,101571.91
2023-02-27T10:08:01.354Z,101573.41
2023-02-27T10:10:41.856Z,101580.81
2023-02-27T10:13:25.924Z,101589.94
2023-02-27T10:15:55.033Z,101588.84
2023-02-27T10:18:33.708Z,101594.09
2023-02-27T10:21:11.177Z,101592.91
2023-02-27T10:23:38.365Z,101595.63
2023-02-27T10:26:06.585Z,101578.28
2023-02-27T10:28:34.351Z,101552.72
2023-02-27T10:31:02.528Z,101600.19
2023-02-27T10:33:34.746Z,101597.22
2023-02-27T10:36:03.620Z,101570.94
2023-02-27T10:38:40.341Z,101586.81
2023-02-27T10:41:11.738Z,101577.09
2023-02-27T10:43:39.125Z,101570.94
2023-02-27T10:46:30.166Z,101598.09
2023-02-27T10:49:13.942Z,101602.09
2023-02-27T10:51:41.657Z,101571.53
2023-02-27T10:54:26.952Z,101605.84
2023-02-27T10:56:57.874Z,101612.34
2023-02-27T10:59:36.431Z,101612.34
2023-02-27T11:02:21.088Z,101601.56
2023-02-27T11:04:57.545Z,101603.25
2023-02-27T11:07:36.710Z,101602.72
2023-02-27T11:10:23.535Z,101612.47
2023-02-27T11:13:01.530Z,101617.41
2023-02-27T11:15:37.377Z,101603.63
2023-02-27T11:18:39.070Z,101613.81
2023-02-27T11:21:29.222Z,101620.84
2023-02-27T11:24:07.180Z,101613.97
2023-02-27T11:26:39.306Z,101619.59
2023-02-27T11:29:18.540Z,101626.63
2023-02-27T11:31:47.469Z,101606.69
2023-02-27T11:34:37.006Z,101605.44
2023-02-27T11:37:22.233Z,101574.25
2023-02-27T11:40:14.133Z,101609.91
2023-02-27T11:43:15.526Z,101604.31
2023-02-27T11:46:18.388Z,101584.50
2023-02-27T11:48:37.854Z,101599.50
2023-02-27T11:51:10.925Z,101605.13
2023-02-27T11:54:07.570Z,101588.16
2023-02-27T11:56:39.304Z,101586.81
2023-02-27T11:59:15.327Z,101590.88
2023-02-27T12:01:47.087Z,101583.69
2023-02-27T12:04:21.754Z,101559.16
2023-02-27T12:07:06.413Z,101565.59
2023-02-27T12:09:58.444Z,101546.59
2023-02-27T12:12:51.374Z,101578.50
2023-02-27T12:15:34.746Z,101569.91
2023-02-27T12:18:11.457Z,101575.09
2023-02-27T12:20:47.759Z,101573.09
2023-02-27T12:23:34.663Z,101566.84
2023-02-27T12:26:15.176Z,101578.75
2023-02-27T12:29:00.919Z,101575.47
2023-02-27T12:31:37.264Z,101550.97
2023-02-27T12:34:11.108Z,101590.59
2023-02-27T12:36:39.028Z,101588.19
2023-02-27T12:39:06.880Z,101582.22
2023-02-27T12:41:47.939Z,101599.25
2023-02-27T12:44:42.186Z,101588.19
2023-02-27T12:47:35.096Z,101592.47
2023-02-27T12:50:12.366Z,101609.53
2023-02-27T12:52:54.338Z,101615.50
2023-02-27T12:55:27.162Z,101595.72
2023-02-27T12:58:22.860Z,101606.84
2023-02-27T13:01:28.672Z,101605.88
2023-02-27T13:04:37.901Z,101594.53
2023-02-27T13:07:46.252Z,101569.47
2023-02-27T13:10:27.324Z,101591.59
2023-02-27T13:13:02.475Z,101588.38
2023-02-27T13:15:48.870Z,101604.78
2023-02-27T13:18:27.118Z,101600.03
2023-02-27T13:21:17.293Z,101599.25
2023-02-27T13:24:12.110Z,101597.72
2023-02-27T13:26:46.095Z,101593.53
2023-02-27T13:29:19.084Z,101588.53
2023-02-27T13:32:07.717Z,101575.97
2023-02-27T13:34:46.946Z,101601.03
2023-02-27T13:37:14.216Z,101587.03
2023-02-27T13:39:45.838Z,101592.72
2023-02-27T13:42:36.254Z,101605.09
2023-02-27T13:45:24.425Z,101594.97
2023-02-27T13:47:51.856Z,101570.09
2023-02-27T13:50:19.101Z,101609.41
2023-02-27T13:52:47.133Z,101601.44
2023-02-27T13:55:36.175Z,101602.78
2023-02-27T13:58:05.282Z,101595.63
2023-02-27T14:00:35.179Z,101600.28
2023-02-27T14:03:26.188Z,101617.88
2023-02-27T14:05:56.821Z,101592.16
2023-02-27T14:08:29.977Z,101612.09
2023-02-27T14:11:03.184Z,101588.59
2023-02-27T14:13:45.716Z,101618.84
2023-02-27T14:16:42.152Z,101613.94
2023-02-27T14:19:15.463Z,101625.72
2023-02-27T14:21:51.935Z,101622.53
2023-02-27T14:24:23.615Z,101566.94
2023-02-27T14:26:53.700Z,101609.59
2023-02-27T14:29:24.892Z,101590.78
2023-02-27T14:31:54.394Z,101616.81
2023-02-27T14:34:23.085Z,101593.03
2023-02-27T14:36:54.735Z,101623.38
2023-02-27T14:39:32.554Z,101593.69
2023-02-27T14:42:37.586Z,101634.44
2023-02-27T14:45:14.372Z,101600.06
2023-02-27T14:47:42.045Z,101624.41
2023-02-27T14:50:34.605Z,101602.69
2023-02-27T14:53:02.350Z,101618.66
2023-02-27T14:55:37.758Z,101628.59
2023-02-27T14:58:07.972Z,101634.38
2023-02-27T15:00:41.285Z,101595.94
2023-02-27T15:03:24.041Z,101625.88
2023-02-27T15:05:54.022Z,101623.50
2023-02-27T15:08:24.853Z,101627.56
2023-02-27T15:10:54.590Z,101620.47
2023-02-27T15:13:27.713Z,101643.19
2023-02-27T15:16:34.742Z,101636.16
2023-02-27T15:19:14.346Z,101618.31
2023-02-27T15:21:50.041Z,101627.88
2023-02-27T15:24:50.120Z,101642.97
2023-02-27T15:27:21.510Z,101640.44
2023-02-27T15:30:00.050Z,101634.66
2023-02-27T15:32:36.274Z,101633.19
2023-02-27T15:35:16.242Z,101624.69
2023-02-27T15:37:50.664Z,101588.19
2023-02-27T15:40:22.365Z,101633.28
2023-02-27T15:42:49.800Z,101601.59
2023-02-27T15:45:23.873Z,101632.63
2023-02-27T15:47:51.647Z,101650.47
2023-02-27T15:50:18.684Z,101645.03
2023-02-27T15:53:15.635Z,101631.31
2023-02-27T15:55:55.580Z,101631.16
2023-02-27T15:58:26.169Z,101639.59
2023-02-27T16:01:05.800Z,101653.75
2023-02-27T16:03:38.475Z,101635.69
2023-02-27T16:06:12.581Z,101604.44
2023-02-27T16:08:55.728Z,101626.72
2023-02-27T16:11:26.236Z,101630.75
2023-02-27T16:13:54.905Z,101620.97
2023-02-27T16:16:22.054Z,101664.34
2023-02-27T16:18:51.477Z,101639.34
2023-02-27T16:21:26.968Z,101634.22
2023-02-27T16:23:55.469Z,101658.53
2023-02-27T16:26:38.581Z,101665.25
2023-02-27T16:29:19.526Z,101658.88
2023-02-27T16:31:58.298Z,101679.31
2023-02-27T16:34:45.188Z,101690.16
2023-02-27T16:37:22.697Z,101709.78
2023-02-27T16:39:52.481Z,101689.31
2023-02-27T16:42:19.971Z,101702.13
2023-02-27T16:44:47.699Z,101706.00
2023-02-27T16:47:15.367Z,101701.44
2023-02-27T16:49:44.706Z,101690.81
2023-02-27T16:52:12.505Z,101719.09
2023-02-27T16:54:43.224Z,101714.31
2023-02-27T16:57:11.716Z,101729.13
2023-02-27T16:59:41.313Z,101721.25
2023-02-27T17:02:14.070Z,101737.28
2023-02-27T17:04:44.592Z,101747.78
2023-02-27T17:07:16.010Z,101734.94
2023-02-27T17:09:45.200Z,101748.53
2023-02-27T17:12:13.006Z,101746.84
2023-02-27T17:14:40.408Z,101752.00
2023-02-27T17:17:09.289Z,101763.59
2023-02-27T17:19:38.202Z,101757.34
2023-02-27T17:22:06.837Z,101748.59
2023-02-27T17:24:34.701Z,101775.91
2023-02-27T17:27:02.499Z,101778.94
2023-02-27T17:29:40.432Z,101764.25
2023-02-27T17:32:09.464Z,101787.34
2023-02-27T17:34:40.817Z,101771.81
2023-02-27T17:37:08.956Z,101797.09
2023-02-27T17:39:40.366Z,101793.94
2023-02-27T17:42:15.175Z,101802.88
2023-02-27T17:44:45.080Z,101810.47
2023-02-27T17:47:15.779Z,101816.00
2023-02-27T17:49:43.915Z,101822.16
2023-02-27T17:52:13.024Z,101828.22
2023-02-27T17:54:40.880Z,101816.88
2023-02-27T17:57:10.612Z,101824.53
2023-02-27T17:59:40.420Z,101836.16
2023-02-27T18:02:08.391Z,101825.69
2023-02-27T18:04:35.844Z,101841.09
2023-02-27T18:07:03.457Z,101836.72
2023-02-27T18:09:30.689Z,101857.91
2023-02-27T18:11:58.256Z,101849.66
2023-02-27T18:14:26.491Z,101842.69
2023-02-27T18:16:54.205Z,101862.03
2023-02-27T18:19:23.351Z,101867.84
2023-02-27T18:21:52.615Z,101882.63
2023-02-27T18:24:20.639Z,101879.88
2023-02-27T18:26:48.317Z,101878.31
2023-02-27T18:29:16.512Z,101883.59
2023-02-27T18:31:46.408Z,101883.41
2023-02-27T18:34:18.602Z,101895.09
2023-02-27T18:36:58.200Z,101891.06
2023-02-27T18:39:29.096Z,101888.66
2023-02-27T18:41:56.718Z,101865.75
2023-02-27T18:44:25.077Z,101895.13
2023-02-27T18:46:52.430Z,101913.56
2023-02-27T18:49:20.151Z,101885.13
2023-02-27T18:51:47.734Z,101905.00
2023-02-27T18:54:15.915Z,101895.38
2023-02-27T18:56:43.262Z,101903.91
2023-02-27T18:59:12.422Z,101907.50
2023-02-27T19:01:39.722Z,101904.91
2023-02-27T19:04:08.682Z,101919.75
2023-02-27T19:06:40.839Z,101929.19
2023-02-27T19:09:14.598Z,101908.44
2023-02-27T19:11:43.076Z,101905.94
2023-02-27T19:14:13.738Z,101932.69
2023-02-27T19:16:41.769Z,101921.81
2023-02-27T19:19:11.075Z,101922.44
2023-02-27T19:21:47.797Z,101909.00
2023-02-27T19:24:19.827Z,101924.31
2023-02-27T19:26:48.427Z,101923.81
2023-02-27T19:29:16.763Z,101897.94
2023-02-27T19:31:45.053Z,101934.91
2023-02-27T19:34:13.150Z,101932.25
2023-02-27T19:36:41.683Z,101938.56
2023-02-27T19:39:09.209Z,101933.47
2023-02-27T19:41:36.490Z,101946.69
2023-02-27T19:44:03.760Z,101932.63
2023-02-27T19:46:35.088Z,101946.34
2023-02-27T19:49:05.574Z,101897.75
2023-02-27T19:51:34.728Z,101959.19
2023-02-27T19:54:07.916Z,101946.91
2023-02-27T19:56:37.576Z,101939.22
2023-02-27T19:59:05.354Z,101952.25
2023-02-27T20:01:36.522Z,101951.72
2023-02-27T20:04:03.996Z,101907.66
2023-02-27T20:06:42.217Z,101914.25
2023-02-27T20:09:15.609Z,101947.91
2023-02-27T20:12:12.130Z,101951.16
2023-02-27T20:14:46.740Z,101957.94
2023-02-27T20:17:22.605Z,101944.00
2023-02-27T20:19:57.268Z,101888.16
2023-02-27T20:22:29.138Z,101958.88
2023-02-27T20:24:57.141Z,101966.19
2023-02-27T20:27:25.066Z,101961.50
2023-02-27T20:29:58.882Z,101953.06
2023-02-27T20:32:27.153Z,101958.13
2023-02-27T20:34:55.903Z,101964.09
2023-02-27T20:37:23.726Z,101933.63
2023-02-27T20:39:55.578Z,101965.00
2023-02-27T20:42:25.982Z,101967.13
2023-02-27T20:44:53.567Z,101955.81
2023-02-27T20:47:21.414Z,101970.72
2023-02-27T20:49:49.601Z,101960.41
2023-02-27T20:52:17.483Z,101971.38
2023-02-27T20:54:44.735Z,101980.13
2023-02-27T20:57:12.100Z,101978.44
2023-02-27T20:59:39.615Z,101989.41
2023-02-27T21:02:08.918Z,101988.41
2023-02-27T21:04:46.648Z,101984.34
2023-02-27T21:07:16.581Z,101996.22
2023-02-27T21:09:44.952Z,102000.09
2023-02-27T21:12:12.787Z,101985.72
2023-02-27T21:14:41.165Z,101991.28
2023-02-27T21:17:09.193Z,101989.25
2023-02-27T21:19:37.360Z,102006.38
2023-02-27T21:22:04.719Z,102002.53
2023-02-27T21:24:32.729Z,101982.47
2023-02-27T21:27:00.387Z,102015.13
2023-02-27T21:29:29.074Z,102008.00
2023-02-27T21:31:57.767Z,102002.13
2023-02-27T21:34:27.694Z,102006.78
2023-02-27T21:36:55.476Z,101987.63
2023-02-27T21:39:28.510Z,102007.66
2023-02-27T21:41:59.239Z,102009.53
2023-02-27T21:44:27.030Z,101978.53
2023-02-27T21:46:55.071Z,102020.63
2023-02-27T21:49:27.001Z,102000.63
2023-02-27T21:51:54.732Z,102006.81
2023-02-27T21:54:23.461Z,102014.78
2023-02-27T21:56:50.944Z,101981.94
2023-02-27T21:59:19.622Z,102005.91
2023-02-27T22:01:48.548Z,102024.28
2023-02-27T22:04:17.324Z,102026.72
2023-02-27T22:06:45.283Z,102025.44
2023-02-27T22:09:12.734Z,102028.91
2023-02-27T22:11:41.394Z,101996.47
2023-02-27T22:14:09.860Z,101986.88
2023-02-27T22:16:41.709Z,102022.25
2023-02-27T22:19:12.032Z,102019.94
2023-02-27T22:21:40.261Z,102025.84
2023-02-27T22:24:08.171Z,101984.84
2023-02-27T22:26:35.866Z,101991.72
2023-02-27T22:29:04.792Z,102023.53
2023-02-27T22:31:35.201Z,102000.88
2023-02-27T22:34:10.037Z,102019.47
2023-02-27T22:36:37.849Z,102006.66
2023-02-27T22:39:06.622Z,101999.59
2023-02-27T22:41:36.512Z,102019.47
2023-02-27T22:44:05.120Z,101987.94
2023-02-27T22:46:37.163Z,102015.75
2023-02-27T22:49:24.042Z,102029.88
2023-02-27T22:51:52.462Z,102023.97
2023-02-27T22:54:22.086Z,102016.16
2023-02-27T22:56:52.598Z,102017.81
2023-02-27T22:59:20.602Z,101982.94
2023-02-27T23:01:51.941Z,102017.78
2023-02-27T23:04:23.288Z,102009.56
2023-02-27T23:06:53.016Z,102015.59
2023-02-27T23:09:24.652Z,101996.09
2023-02-27T23:11:53.838Z,102017.16
2023-02-27T23:14:23.712Z,102014.16
2023-02-27T23:16:51.749Z,102017.91
2023-02-27T23:19:22.724Z,102027.41
2023-02-27T23:21:50.449Z,101982.06
2023-02-27T23:24:19.186Z,102032.56
2023-02-27T23:26:49.747Z,101997.44
2023-02-27T23:29:22.210Z,102013.84
2023-02-27T23:31:50.966Z,102027.97
2023-02-27T23:34:18.388Z,102028.59
2023-02-27T23:36:45.636Z,102036.44
2023-02-27T23:39:13.001Z,101997.47
2023-02-27T23:41:40.148Z,102032.22
2023-02-27T23:44:08.800Z,102032.97
2023-02-27T23:46:38.577Z,102024.91
2023-02-27T23:49:06.869Z,102031.81
2023-02-27T23:51:34.832Z,102000.03
2023-02-27T23:54:02.386Z,102036.94
2023-02-27T23:56:31.185Z,102047.47
2023-02-27T23:59:01.418Z,102023.63
